Time;durP1;ratioP1;P1;durP2;ratioP2;P2;SDS_P1;SDS_P2;PMS_P1;PMS_P2;Temp;Humidity;BMP_temperature;BMP_pressure;BME280_temperature;BME280_humidity;BME280_pressure;Samples;Min_cycle;Max_cycle;Signal;HPM_P1;HPM_P2
2023/02/20 00:00:39;;;;;;;29.77;19.20;;;;;;;-5.67;82.45;145932.22;5096760;28;20027;-64
2023/02/20 00:03:05;;;;;;;27.38;18.27;;;;;;;-5.55;83.52;145961.28;5098409;28;20024;-64
2023/02/20 00:05:31;;;;;;;30.50;20.00;;;;;;;-5.53;83.12;145966.34;5097842;28;20023;-64
2023/02/20 00:07:57;;;;;;;29.77;18.38;;;;;;;-5.77;82.54;145906.88;5099065;28;20030;-63
2023/02/20 00:10:23;;;;;;;27.13;17.85;;;;;;;-5.68;82.71;145928.41;5097835;28;20057;-63
2023/02/20 00:12:49;;;;;;;28.48;18.38;;;;;;;-5.68;83.05;145928.41;5099421;28;20449;-63
2023/02/20 00:15:18;;;;;;;28.08;16.75;;;;;;;-6.04;83.73;145839.91;5099224;28;20316;-63
2023/02/20 00:17:46;;;;;;;29.38;18.55;;;;;;;-5.94;82.71;145866.44;5098433;28;20370;-63
2023/02/20 00:20:24;;;;;;;27.77;17.90;;;;;;;-5.87;83.95;145882.91;5080209;28;20133;-63
2023/02/20 00:22:50;;;;;;;26.10;17.17;;;;;;;-5.84;83.07;145889.19;5100882;28;20024;-64
2023/02/20 00:25:18;;;;;;;29.20;18.67;;;;;;;-5.77;82.43;145908.19;5102292;28;20031;-64
2023/02/20 00:27:44;;;;;;;31.90;19.42;;;;;;;-5.58;82.01;145953.72;5102045;28;20035;-64
2023/02/20 00:30:14;;;;;;;28.23;18.90;;;;;;;-5.60;82.08;145948.63;5101813;28;20031;-63
2023/02/20 00:32:40;;;;;;;25.77;16.85;;;;;;;-5.80;82.07;145899.31;5099347;28;20323;-65
2023/02/20 00:35:06;;;;;;;27.02;17.38;;;;;;;-5.78;81.50;145904.38;5101739;28;20031;-64
2023/02/20 00:37:31;;;;;;;26.88;17.42;;;;;;;-5.81;83.67;145896.81;5094739;28;20056;-63
2023/02/20 00:39:57;;;;;;;24.92;16.63;;;;;;;-5.83;83.71;145892.97;5100407;28;20236;-63
2023/02/20 00:42:22;;;;;;;24.77;15.77;;;;;;;-6.04;82.33;145839.91;5100495;28;20056;-63
2023/02/20 00:44:48;;;;;;;23.63;15.55;;;;;;;-6.13;82.36;145818.41;5100865;28;20031;-64
2023/02/20 00:47:13;;;;;;;25.58;16.88;;;;;;;-5.91;83.02;145872.78;5101544;28;20016;-62
2023/02/20 00:49:39;;;;;;;24.90;16.95;;;;;;;-5.84;81.66;145889.19;5099782;28;20069;-63
2023/02/20 00:52:04;;;;;;;25.45;15.30;;;;;;;-6.15;82.48;145814.63;5099788;28;20028;-62
2023/02/20 00:54:30;;;;;;;25.30;16.63;;;;;;;-6.01;82.74;145848.78;5102588;28;20029;-63
2023/02/20 00:56:55;;;;;;;24.23;16.55;;;;;;;-5.88;83.27;145880.34;5101354;28;20093;-64
2023/02/20 00:59:21;;;;;;;26.65;15.98;;;;;;;-5.95;82.15;145862.66;5101191;28;20045;-65
2023/02/20 01:01:46;;;;;;;26.77;17.23;;;;;;;-5.90;82.24;145876.56;5098221;28;20016;-64
2023/02/20 01:04:12;;;;;;;26.20;17.58;;;;;;;-5.82;81.76;145894.25;5100968;28;20031;-64
2023/02/20 01:06:38;;;;;;;28.20;17.25;;;;;;;-5.74;82.59;145915.75;5100461;28;20028;-64
2023/02/20 01:09:04;;;;;;;26.73;16.73;;;;;;;-5.67;81.36;145930.91;5101509;28;20078;-63
2023/02/20 01:11:29;;;;;;;26.45;17.23;;;;;;;-5.62;81.59;145943.59;5100144;28;20051;-63
2023/02/20 01:13:55;;;;;;;24.88;15.63;;;;;;;-5.62;81.79;145943.59;5101133;28;20032;-64
2023/02/20 01:16:20;;;;;;;26.70;16.50;;;;;;;-5.60;81.49;145949.91;5082194;28;20041;-64
2023/02/20 01:18:48;;;;;;;24.52;17.17;;;;;;;-5.64;82.38;145938.50;5101588;28;20387;-64
2023/02/20 01:21:14;;;;;;;26.52;17.60;;;;;;;-5.53;81.05;145965.09;5099806;28;20336;-63
2023/02/20 01:23:40;;;;;;;25.73;16.70;;;;;;;-5.77;82.34;145908.19;5104596;28;20047;-63
2023/02/20 01:26:05;;;;;;;27.80;16.90;;;;;;;-5.68;81.45;145928.41;5104005;28;20028;-63
2023/02/20 01:28:31;;;;;;;23.67;15.40;;;;;;;-5.79;80.96;145903.09;5082812;28;20027;-64
2023/02/20 01:30:56;;;;;;;25.23;17.30;;;;;;;-5.73;81.49;145918.28;5082885;28;20039;-63
2023/02/20 01:33:22;;;;;;;25.52;17.00;;;;;;;-5.84;82.14;145889.19;5101024;28;20024;-64
2023/02/20 01:35:47;;;;;;;24.85;16.52;;;;;;;-5.82;81.10;145895.50;5099578;28;20019;-64
2023/02/20 01:38:13;;;;;;;26.70;16.90;;;;;;;-5.68;82.13;145928.41;5100553;28;20138;-63
2023/02/20 01:40:38;;;;;;;23.38;15.23;;;;;;;-5.98;82.15;145855.13;5081826;28;20028;-64
2023/02/20 01:43:04;;;;;;;27.33;17.30;;;;;;;-5.97;82.61;145858.84;5097255;28;20075;-64
2023/02/20 01:45:36;;;;;;;25.30;17.50;;;;;;;-5.91;82.14;145872.78;5094722;28;20061;-64
2023/02/20 01:48:03;;;;;;;25.50;16.98;;;;;;;-5.97;82.69;145857.63;5100683;28;20039;-63
2023/02/20 01:50:34;;;;;;;25.13;15.65;;;;;;;-6.05;82.84;145838.66;5100655;28;20028;-63
2023/02/20 01:53:08;;;;;;;26.55;16.15;;;;;;;-6.10;81.12;145827.28;5080685;28;20411;-63
2023/02/20 01:55:52;;;;;;;25.67;16.85;;;;;;;-6.12;82.33;145820.97;5103084;28;20040;-62
2023/02/20 01:58:25;;;;;;;24.08;16.13;;;;;;;-6.25;81.66;145790.59;5089364;28;20086;-63
2023/02/20 02:00:50;;;;;;;24.90;16.13;;;;;;;-6.04;81.54;145839.91;5099678;28;20032;-62
2023/02/20 02:03:26;;;;;;;25.40;17.00;;;;;;;-5.90;81.71;145875.25;5100049;28;20093;-63
2023/02/20 02:05:58;;;;;;;24.20;16.20;;;;;;;-5.93;81.84;145867.69;5102448;28;20038;-63
2023/02/20 02:08:26;;;;;;;25.33;16.40;;;;;;;-5.87;82.28;145882.91;5100596;28;20431;-66
2023/02/20 02:10:54;;;;;;;24.13;16.42;;;;;;;-5.80;81.02;145900.59;5084508;28;20077;-63
2023/02/20 02:13:20;;;;;;;25.02;16.08;;;;;;;-5.80;82.22;145900.59;5103015;28;20145;-63
2023/02/20 02:15:49;;;;;;;25.23;16.23;;;;;;;-5.88;81.00;145880.34;5099214;28;20028;-64
2023/02/20 02:18:47;;;;;;;24.95;16.60;;;;;;;-5.80;80.60;145900.59;5099771;28;20077;-63
2023/02/20 02:21:33;;;;;;;24.23;15.73;;;;;;;-5.89;80.90;145877.81;5070901;28;20040;-63
2023/02/20 02:24:01;;;;;;;23.52;15.23;;;;;;;-6.08;82.30;145831.09;5099262;28;20020;-64
2023/02/20 02:26:54;;;;;;;27.30;17.10;;;;;;;-5.90;82.93;145875.25;5101955;28;20035;-63
2023/02/20 02:29:44;;;;;;;24.67;15.57;;;;;;;-5.97;82.65;145858.84;5102306;28;20036;-63
2023/02/20 02:32:19;;;;;;;23.10;15.45;;;;;;;-6.02;81.73;145846.25;5091551;28;20036;-63
2023/02/20 02:35:00;;;;;;;27.00;16.13;;;;;;;-5.90;82.43;145876.56;5088917;28;20378;-63
2023/02/20 02:37:31;;;;;;;22.42;15.10;;;;;;;-5.70;81.85;145923.34;5096470;28;20040;-62
2023/02/20 02:40:09;;;;;;;20.35;14.10;;;;;;;-6.01;80.87;145848.78;5096515;28;20032;-63
2023/02/20 02:42:56;;;;;;;22.48;15.85;;;;;;;-5.94;81.82;145866.44;5089612;28;20038;-63
2023/02/20 02:45:45;;;;;;;23.02;15.43;;;;;;;-6.12;81.29;145820.97;5080279;28;20056;-64
2023/02/20 02:48:21;;;;;;;23.40;15.07;;;;;;;-5.94;80.62;145866.44;5082832;28;20040;-64
2023/02/20 02:50:48;;;;;;;23.85;16.13;;;;;;;-6.02;81.91;145845.00;5101046;28;20051;-64
2023/02/20 02:53:14;;;;;;;22.13;15.20;;;;;;;-5.96;81.23;145860.09;5100630;28;20043;-63
2023/02/20 02:55:40;;;;;;;23.25;15.57;;;;;;;-5.91;82.13;145874.00;5101457;28;20024;-63
2023/02/20 02:58:07;;;;;;;22.98;15.10;;;;;;;-6.21;81.30;145799.47;5101797;28;20099;-66
2023/02/20 03:00:36;;;;;;;23.55;14.73;;;;;;;-6.28;82.90;145781.78;5080082;28;20347;-63
2023/02/20 03:03:06;;;;;;;20.80;14.43;;;;;;;-6.23;81.84;145793.16;5101757;28;20186;-62
2023/02/20 03:05:56;;;;;;;25.15;15.50;;;;;;;-6.24;82.64;145791.91;5074906;28;20035;-62
2023/02/20 03:08:40;;;;;;;21.85;14.50;;;;;;;-6.13;81.68;145819.72;5098573;28;20036;-63
2023/02/20 03:11:15;;;;;;;21.77;15.55;;;;;;;-6.10;82.04;145827.28;5094418;28;20028;-63
2023/02/20 03:17:00;;;;;;;20.33;14.50;;;;;;;-6.13;80.47;145819.72;5095770;28;20031;-63
2023/02/20 03:19:32;;;;;;;23.98;15.80;;;;;;;-6.45;81.04;145741.31;5101091;28;20055;-63
2023/02/20 03:21:59;;;;;;;;;;;;;;;-6.30;82.41;145776.69;5094201;28;20328;-63
2023/02/20 03:24:28;;;;;;;22.88;14.88;;;;;;;-6.42;81.36;145748.88;5099286;28;19975;-64
2023/02/20 03:26:56;;;;;;;22.40;15.32;;;;;;;-6.43;81.56;145745.09;5078926;28;20513;-64
2023/02/20 03:29:33;;;;;;;26.58;17.20;;;;;;;-6.30;82.23;145776.69;5097485;28;20036;-63
2023/02/20 03:43:27;;;;;;;25.85;16.92;;;;;;;-6.16;82.11;145812.09;5091380;28;20063;-64
2023/02/20 03:46:05;;;;;;;26.50;16.52;;;;;;;-5.92;81.82;145871.47;5075581;28;20046;-63
2023/02/20 03:48:44;;;;;;;27.30;17.58;;;;;;;-6.22;82.73;145796.94;5099409;28;20028;-63
2023/02/20 03:51:11;;;;;;;25.13;16.92;;;;;;;-6.06;82.22;145836.13;5099396;28;20040;-64
2023/02/20 03:53:37;;;;;;;23.60;15.05;;;;;;;-6.51;82.64;145724.88;5100143;28;20020;-64
2023/02/20 03:56:08;;;;;;;23.80;16.23;;;;;;;-6.53;83.85;145721.06;5093104;28;20039;-63
2023/02/20 03:58:39;;;;;;;26.45;16.60;;;;;;;-6.50;83.06;145728.69;5092586;28;20027;-64
2023/02/20 04:01:06;;;;;;;;;;;;;;;-6.39;82.98;145755.22;5095704;28;20040;-63
2023/02/20 04:03:38;;;;;;;25.77;16.77;;;;;;;-6.45;82.05;145741.31;5093965;28;19926;-65
2023/02/20 04:06:07;;;;;;;26.90;16.45;;;;;;;-6.40;83.55;145751.44;5092409;28;20036;-66
2023/02/20 04:08:38;;;;;;;26.13;17.75;;;;;;;-6.28;83.34;145783.03;5099833;28;20031;-67
2023/02/20 04:11:25;;;;;;;24.87;16.60;;;;;;;-6.04;82.54;145841.22;5103121;28;20030;-65
2023/02/20 04:13:53;;;;;;;26.83;17.42;;;;;;;-6.21;82.67;145799.47;5101640;28;20865;-66
2023/02/20 04:16:20;;;;;;;27.98;17.95;;;;;;;-6.25;82.55;145790.59;5100503;28;20020;-66
2023/02/20 04:18:46;;;;;;;27.20;18.05;;;;;;;-6.25;82.20;145790.59;5101555;28;20035;-65
2023/02/20 04:21:36;;;;;;;26.80;17.55;;;;;;;-6.07;82.95;145833.59;5100923;28;20028;-64
2023/02/20 04:24:24;;;;;;;27.08;16.48;;;;;;;-6.01;80.95;145848.78;5101875;28;20028;-65
2023/02/20 04:26:50;;;;;;;26.73;16.58;;;;;;;-5.82;81.54;145894.25;5102123;28;20040;-64
2023/02/20 04:29:16;;;;;;;23.73;16.33;;;;;;;-5.83;81.35;145892.97;5103408;28;20056;-65
2023/02/20 04:31:42;;;;;;;23.33;15.77;;;;;;;-5.73;81.46;145917.00;5100631;28;20217;-64
2023/02/20 04:34:07;;;;;;;24.13;15.52;;;;;;;-6.11;80.82;145823.50;5102742;28;20027;-65
2023/02/20 04:36:33;;;;;;;22.20;15.38;;;;;;;-6.13;81.95;145819.72;5101249;28;20059;-64
2023/02/20 04:38:58;;;;;;;23.88;15.07;;;;;;;-6.42;81.92;145747.63;5101854;28;20227;-65
2023/02/20 04:41:24;;;;;;;27.02;16.13;;;;;;;-6.37;82.90;145759.00;5101912;28;20039;-65
2023/02/20 04:44:29;;;;;;;27.92;16.63;;;;;;;-6.27;82.35;145784.28;5102561;28;20099;-66
2023/02/20 04:46:35;;;;;;;24.02;15.25;;;;;;;-6.30;81.47;145776.69;5099070;28;20039;-65
2023/02/20 04:49:01;;;;;;;25.05;15.85;;;;;;;-6.31;81.19;145774.22;5083533;28;20059;-64
2023/02/20 04:51:26;;;;;;;22.38;14.65;;;;;;;-6.30;81.52;145776.69;5100908;28;20320;-65
2023/02/20 04:53:52;;;;;;;24.98;15.25;;;;;;;-6.49;82.36;145731.19;5101108;28;20540;-64
2023/02/20 04:56:17;;;;;;;21.13;14.52;;;;;;;-6.49;83.39;145729.94;5081420;28;20334;-65
2023/02/20 04:58:46;;;;;;;23.95;15.13;;;;;;;-6.44;82.19;145742.56;5099935;28;20834;-65
2023/02/20 05:01:12;;;;;;;22.73;15.57;;;;;;;-6.16;82.79;145812.09;5101350;28;20031;-65
2023/02/20 05:03:37;;;;;;;22.20;15.18;;;;;;;-6.36;82.26;145762.78;5100361;28;20031;-66
2023/02/20 05:06:03;;;;;;;20.42;14.75;;;;;;;-6.30;82.20;145776.69;5102454;28;20216;-66
2023/02/20 05:08:30;;;;;;;20.83;14.88;;;;;;;-6.46;81.30;145738.78;5100598;28;20028;-65
2023/02/20 05:10:56;;;;;;;21.30;14.63;;;;;;;-6.45;81.66;145741.31;5082451;28;20067;-66
2023/02/20 05:13:22;;;;;;;19.42;12.45;;;;;;;-6.64;82.50;145693.28;5100706;28;20224;-65
2023/02/20 05:15:47;;;;;;;22.88;14.32;;;;;;;-6.63;82.70;145695.81;5100428;28;20032;-66
2023/02/20 05:18:13;;;;;;;22.52;15.45;;;;;;;-6.34;82.79;145766.59;5101869;28;20277;-64
2023/02/20 05:23:33;;;;;;;19.52;13.90;;;;;;;-6.33;80.78;145769.13;5055586;28;20041;-69
2023/02/20 05:25:58;;;;;;;23.95;15.18;;;;;;;-6.22;81.42;145796.94;5089041;28;20055;-66
2023/02/20 05:28:24;;;;;;;21.92;14.80;;;;;;;-6.25;81.51;145790.59;5091929;28;20036;-65
2023/02/20 05:30:49;;;;;;;26.45;15.50;;;;;;;-5.96;81.29;145860.09;5090445;28;20060;-67
2023/02/20 05:33:15;;;;;;;24.70;15.40;;;;;;;-5.89;81.11;145877.81;5094917;28;20028;-67
2023/02/20 05:35:41;;;;;;;21.65;13.70;;;;;;;-6.22;78.85;145795.69;5094884;28;20044;-66
2023/02/20 05:38:06;;;;;;;21.75;15.10;;;;;;;-6.23;79.46;145794.38;5086320;28;20044;-67
2023/02/20 05:40:32;;;;;;;24.83;16.60;;;;;;;-6.19;80.73;145804.50;5101514;28;20221;-66
2023/02/20 05:42:57;;;;;;;21.85;15.25;;;;;;;-6.01;79.77;145847.50;5102096;28;20030;-67
2023/02/20 05:45:23;;;;;;;21.45;14.73;;;;;;;-6.00;80.46;145851.31;5092302;28;20056;-67
2023/02/20 05:47:49;;;;;;;21.95;14.75;;;;;;;-6.25;79.28;145789.34;5087717;28;20060;-67
2023/02/20 05:50:14;;;;;;;20.98;14.10;;;;;;;-6.12;79.89;145822.22;5096135;28;20047;-67
2023/02/20 05:52:40;;;;;;;23.35;15.30;;;;;;;-6.44;79.76;145742.56;5099399;28;20023;-67
2023/02/20 05:55:06;;;;;;;23.27;15.45;;;;;;;-6.41;81.17;145750.19;5052104;28;20099;-67
2023/02/20 05:57:31;;;;;;;22.25;14.70;;;;;;;-6.19;80.72;145803.25;5089435;28;20087;-66
2023/02/20 05:59:57;;;;;;;24.90;15.95;;;;;;;-6.44;79.90;145743.84;5100876;28;20047;-66
2023/02/20 06:02:22;;;;;;;28.58;14.82;;;;;;;-6.46;80.13;145737.53;5099320;28;20389;-67
2023/02/20 06:04:48;;;;;;;25.48;14.73;;;;;;;-6.54;80.46;145717.28;5097748;28;20020;-66
2023/02/20 06:07:13;;;;;;;20.85;14.55;;;;;;;-6.51;81.08;145724.88;5098948;28;20141;-67
2023/02/20 06:09:43;;;;;;;20.42;14.50;;;;;;;-6.33;80.21;145770.38;5073513;28;20107;-67
2023/02/20 06:12:09;;;;;;;21.52;13.82;;;;;;;-6.34;79.96;145767.88;5062998;28;20256;-66
2023/02/20 06:14:35;;;;;;;21.42;13.95;;;;;;;-6.45;79.84;145740.06;5088802;28;20024;-67
2023/02/20 06:17:00;;;;;;;21.67;15.30;;;;;;;-6.39;79.75;145753.97;5090195;28;20019;-67
2023/02/20 06:19:26;;;;;;;21.90;14.38;;;;;;;-6.57;81.11;145709.72;5066731;28;20067;-66
2023/02/20 06:21:53;;;;;;;20.92;13.77;;;;;;;-6.55;81.64;145714.78;5089452;28;20024;-67
2023/02/20 06:24:19;;;;;;;21.67;14.88;;;;;;;-6.43;80.53;145746.41;5096664;28;20027;-66
2023/02/20 06:26:45;;;;;;;21.20;13.75;;;;;;;-6.67;81.07;145685.69;5096166;28;20042;-66
2023/02/20 06:29:13;;;;;;;20.63;14.30;;;;;;;-6.50;80.28;145728.69;5096898;28;20036;-67
2023/02/20 06:31:38;;;;;;;23.73;14.18;;;;;;;-6.63;80.72;145695.81;5097013;28;20040;-69
2023/02/20 06:34:06;;;;;;;19.48;13.50;;;;;;;-6.40;79.80;145751.44;5097310;28;20261;-65
2023/02/20 06:36:35;;;;;;;20.60;14.02;;;;;;;-6.54;80.25;145718.59;5095958;28;20205;-67
2023/02/20 06:39:01;;;;;;;22.05;14.10;;;;;;;-6.47;80.09;145734.97;5096107;28;20070;-66
2023/02/20 06:41:27;;;;;;;20.77;13.95;;;;;;;-6.53;79.55;145721.06;5097086;28;20072;-68
2023/02/20 06:43:53;;;;;;;19.00;12.85;;;;;;;-6.56;79.23;145712.25;5095078;28;20044;-66
2023/02/20 06:46:21;;;;;;;20.42;14.07;;;;;;;-6.64;80.20;145694.56;5074034;28;20055;-67
2023/02/20 06:48:50;;;;;;;21.67;14.70;;;;;;;-6.67;80.63;145685.69;5094950;28;20142;-68
2023/02/20 06:51:21;;;;;;;25.13;15.88;;;;;;;-6.56;80.41;145712.25;5097639;28;20035;-68
2023/02/20 06:53:47;;;;;;;23.23;15.85;;;;;;;-6.23;80.79;145794.38;5097515;28;20032;-70
2023/02/20 06:56:19;;;;;;;22.80;14.65;;;;;;;-6.22;80.31;145796.94;5104811;28;20035;-67
2023/02/20 06:58:47;;;;;;;21.02;14.35;;;;;;;-6.14;78.93;145817.19;5103780;28;20358;-67
2023/02/20 07:01:13;;;;;;;24.85;15.63;;;;;;;-5.99;78.63;145852.56;5092432;28;20107;-67
2023/02/20 07:03:38;;;;;;;23.27;15.20;;;;;;;-5.85;78.13;145886.69;5098162;28;20024;-66
2023/02/20 07:06:04;;;;;;;23.95;14.88;;;;;;;-5.83;77.10;145891.72;5098332;28;20031;-67
2023/02/20 07:08:30;;;;;;;23.65;15.20;;;;;;;-5.77;77.98;145906.88;5096907;28;20024;-66
2023/02/20 07:10:55;;;;;;;24.30;15.15;;;;;;;-5.84;78.40;145889.19;5100931;28;20050;-67
2023/02/20 07:13:21;;;;;;;23.83;15.05;;;;;;;-5.53;77.15;145966.34;5101090;28;20034;-67
2023/02/20 07:15:48;;;;;;;21.90;14.32;;;;;;;-5.79;77.10;145901.84;5101064;28;20323;-66
2023/02/20 07:18:15;;;;;;;23.63;15.30;;;;;;;-5.70;76.81;145923.34;5101281;28;20026;-66
2023/02/20 07:20:41;;;;;;;24.20;15.10;;;;;;;-5.58;77.40;145954.97;5100760;28;20334;-67
2023/02/20 07:23:07;;;;;;;24.63;15.70;;;;;;;-5.42;77.36;145992.91;5100968;28;20518;-67
2023/02/20 07:25:33;;;;;;;23.88;15.32;;;;;;;-5.43;75.94;145991.69;5101075;28;20031;-67
2023/02/20 07:27:58;;;;;;;22.48;15.02;;;;;;;-5.35;76.75;146010.63;5101150;28;20239;-67
2023/02/20 07:30:24;;;;;;;22.27;14.52;;;;;;;-5.59;76.38;145952.41;5101510;28;20027;-68
2023/02/20 07:32:50;;;;;;;21.63;13.70;;;;;;;-5.93;75.11;145868.97;5090836;28;20020;-68
2023/02/20 07:35:15;;;;;;;25.15;16.23;;;;;;;-5.59;77.01;145951.16;5107939;28;20072;-69
2023/02/20 07:37:41;;;;;;;21.80;14.93;;;;;;;-6.02;75.56;145845.00;5106665;28;20027;-67
2023/02/20 07:40:07;;;;;;;24.33;15.20;;;;;;;-5.61;75.20;145947.38;5085160;28;20036;-67
2023/02/20 07:42:33;;;;;;;24.60;15.85;;;;;;;-5.46;75.89;145984.03;5112154;28;20331;-68
2023/02/20 07:44:59;;;;;;;23.70;14.93;;;;;;;-5.55;74.50;145962.53;5065690;28;20040;-67
2023/02/20 07:47:24;;;;;;;22.33;15.10;;;;;;;-5.56;76.33;145960.03;5081523;28;20028;-66
2023/02/20 07:49:50;;;;;;;22.35;14.38;;;;;;;-5.42;74.55;145992.91;5100343;28;20028;-68
2023/02/20 07:52:15;;;;;;;20.80;13.65;;;;;;;-5.51;75.12;145970.16;5099588;28;20016;-67
2023/02/20 07:54:42;;;;;;;20.58;15.05;;;;;;;-5.25;73.47;146034.69;5103845;28;20080;-67
2023/02/20 07:57:08;;;;;;;20.13;13.90;;;;;;;-4.88;73.00;146127.06;5102326;28;20042;-68
2023/02/20 07:59:33;;;;;;;23.20;14.80;;;;;;;-4.84;72.52;146135.94;5100600;28;20543;-69
2023/02/20 08:01:59;;;;;;;23.67;14.98;;;;;;;-4.66;73.28;146178.97;5099167;28;20091;-67
2023/02/20 08:04:26;;;;;;;21.73;14.60;;;;;;;-4.53;71.51;146211.91;5104803;28;20024;-67
2023/02/20 08:06:52;;;;;;;21.77;14.93;;;;;;;-4.41;72.52;146241.03;5110536;28;20020;-67
2023/02/20 08:09:18;;;;;;;22.58;14.23;;;;;;;-5.54;74.13;145963.84;5105804;28;20028;-68
2023/02/20 08:11:43;;;;;;;21.50;14.50;;;;;;;-5.12;72.88;146067.56;5097261;28;20055;-67
2023/02/20 08:14:09;;;;;;;22.85;15.18;;;;;;;-4.89;72.91;146124.56;5103781;28;20085;-66
2023/02/20 08:16:35;;;;;;;23.52;15.70;;;;;;;-4.73;73.59;146162.50;5104888;28;20189;-67
2023/02/20 08:19:01;;;;;;;24.65;15.18;;;;;;;-4.87;72.13;146128.34;5101918;28;20031;-67
2023/02/20 08:21:27;;;;;;;19.65;13.68;;;;;;;-4.66;71.84;146180.22;5114326;28;20027;-65
2023/02/20 08:23:53;;;;;;;19.63;13.10;;;;;;;-4.65;70.60;146181.50;5110549;28;20077;-66
2023/02/20 08:26:19;;;;;;;21.10;13.98;;;;;;;-4.61;72.45;146191.63;5106542;28;20082;-65
2023/02/20 08:28:47;;;;;;;20.23;14.05;;;;;;;-4.39;72.38;146247.34;5088793;28;20106;-69
2023/02/20 08:31:12;;;;;;;23.33;14.80;;;;;;;-4.58;70.53;146199.22;5107539;28;20024;-68
2023/02/20 08:33:38;;;;;;;24.67;15.02;;;;;;;-4.72;70.30;146166.34;5106433;28;20373;-66
2023/02/20 08:36:04;;;;;;;22.88;14.70;;;;;;;-4.44;71.63;146234.69;5118219;28;20031;-66
2023/02/20 08:38:35;;;;;;;23.48;15.13;;;;;;;-4.50;70.48;146219.50;5111379;28;20035;-66
2023/02/20 08:41:06;;;;;;;21.92;14.15;;;;;;;-4.32;70.92;146263.78;5106588;28;20347;-67
2023/02/20 08:43:33;;;;;;;21.48;14.43;;;;;;;-4.17;70.95;146300.53;5107889;28;20034;-68
2023/02/20 08:45:58;;;;;;;24.25;14.70;;;;;;;-4.26;70.32;146277.72;5088987;28;20255;-67
2023/02/20 08:48:24;;;;;;;21.38;14.20;;;;;;;-4.01;70.57;146341.06;5120227;28;20111;-67
2023/02/20 08:50:50;;;;;;;23.52;15.65;;;;;;;-4.36;70.20;146254.94;5111643;28;20020;-66
2023/02/20 08:53:15;;;;;;;21.83;14.27;;;;;;;-4.40;70.57;146243.56;5110115;28;20047;-67
2023/02/20 08:55:41;;;;;;;21.25;14.05;;;;;;;-4.29;69.49;146271.44;5101848;28;20054;-67
2023/02/20 08:58:07;;;;;;;23.58;14.73;;;;;;;-4.15;70.40;146305.59;5105631;28;20300;-66
2023/02/20 09:00:33;;;;;;;17.63;13.20;;;;;;;-4.60;70.06;146195.44;5100293;28;20020;-65
2023/02/20 09:02:58;;;;;;;23.58;14.63;;;;;;;-4.83;71.46;146138.47;5110265;28;20023;-66
2023/02/20 09:05:25;;;;;;;20.80;14.13;;;;;;;-4.57;71.85;146201.78;5097485;28;20107;-65
2023/02/20 09:07:50;;;;;;;24.08;14.35;;;;;;;-4.28;71.82;146272.69;5095080;28;20109;-65
2023/02/20 09:10:20;;;;;;;23.20;14.93;;;;;;;-4.14;70.83;146308.13;5089514;28;20380;-65
2023/02/20 09:12:46;;;;;;;20.90;13.55;;;;;;;-3.75;69.94;146404.41;5091488;28;20030;-64
2023/02/20 09:15:16;;;;;;;22.42;13.77;;;;;;;-3.74;68.86;146406.94;5102343;28;20047;-65
2023/02/20 09:17:43;;;;;;;22.35;14.50;;;;;;;-4.23;67.88;146286.63;5120463;28;20056;-65
2023/02/20 09:20:10;;;;;;;22.30;14.80;;;;;;;-3.71;70.68;146414.53;5093835;28;20333;-65
2023/02/20 09:22:36;;;;;;;20.17;13.18;;;;;;;-4.18;67.15;146299.25;5108843;28;20028;-66
2023/02/20 09:25:05;;;;;;;24.50;14.35;;;;;;;-3.85;69.31;146379.06;5096731;28;20018;-67
2023/02/20 09:27:30;;;;;;;21.90;13.25;;;;;;;-4.09;66.36;146320.81;5097866;28;20031;-66
2023/02/20 09:29:56;;;;;;;20.55;14.00;;;;;;;-3.68;67.15;146420.88;5116385;28;20031;-66
2023/02/20 09:32:21;;;;;;;20.58;14.20;;;;;;;-3.55;68.00;146452.56;5101961;28;20035;-66
2023/02/20 09:34:47;;;;;;;21.88;14.38;;;;;;;-3.54;66.74;146456.38;5109478;28;20334;-67
2023/02/20 09:37:13;;;;;;;21.80;14.25;;;;;;;-3.43;67.90;146483.00;5085941;28;20346;-67
2023/02/20 09:39:39;;;;;;;21.45;14.57;;;;;;;-3.52;66.73;146460.16;5103439;28;20058;-67
2023/02/20 09:42:12;;;;;;;21.85;14.75;;;;;;;-3.97;67.45;146349.94;5101865;28;20032;-68
2023/02/20 09:45:00;;;;;;;24.35;15.05;;;;;;;-3.92;67.23;146361.34;5100747;28;20051;-66
2023/02/20 09:47:59;;;;;;;21.27;14.50;;;;;;;-3.90;68.07;146367.69;5102506;28;20064;-65
2023/02/20 09:50:29;;;;;;;22.40;15.32;;;;;;;-3.84;68.12;146381.63;5102850;28;20079;-64
2023/02/20 09:53:11;;;;;;;20.35;14.30;;;;;;;-3.98;67.35;146347.41;5100614;28;20130;-67
2023/02/20 09:55:39;;;;;;;20.13;13.90;;;;;;;-3.85;67.90;146379.06;5102341;28;20296;-66
2023/02/20 09:58:06;;;;;;;24.23;15.32;;;;;;;-3.67;68.17;146424.69;5103505;28;20038;-65
2023/02/20 10:00:35;;;;;;;21.98;14.57;;;;;;;-3.66;67.73;146427.22;5103699;28;20188;-66
2023/02/20 10:03:22;;;;;;;22.17;14.05;;;;;;;-3.91;68.30;146363.88;5081390;28;20044;-67
2023/02/20 10:05:49;;;;;;;21.02;13.82;;;;;;;-3.88;66.90;146372.72;5102447;28;20316;-67
2023/02/20 10:08:19;;;;;;;23.25;14.50;;;;;;;-4.03;66.94;146336.00;5106320;28;20048;-66
2023/02/20 10:10:48;;;;;;;22.70;15.03;;;;;;;-3.96;67.51;146351.19;5100653;28;20016;-68
2023/02/20 10:13:29;;;;;;;19.88;12.98;;;;;;;-4.10;66.63;146317.03;5102010;28;20498;-66
2023/02/20 10:16:21;;;;;;;23.05;13.73;;;;;;;-3.85;67.26;146380.38;5066216;28;20027;-69
2023/02/20 10:18:52;;;;;;;;;;;;;;;-3.77;66.13;146399.34;5099124;28;20078;-67
2023/02/20 10:21:36;;;;;;;19.33;13.00;;;;;;;-3.72;65.97;146412.03;5105091;28;20436;-68
2023/02/20 10:24:47;;;;;;;23.00;14.43;;;;;;;-3.93;66.69;146360.09;5103343;28;20056;-65
2023/02/20 10:27:18;;;;;;;22.25;14.70;;;;;;;-3.73;69.54;146408.25;5075945;28;20051;-67
2023/02/20 10:29:44;;;;;;;23.00;14.10;;;;;;;-3.70;67.94;146417.09;5101373;28;20028;-68
2023/02/20 10:32:19;;;;;;;21.27;14.07;;;;;;;-3.81;66.88;146389.22;5088071;28;20039;-66
2023/02/20 10:35:06;;;;;;;24.60;15.68;;;;;;;-3.92;67.16;146362.63;5104207;28;20039;-70
2023/02/20 10:37:39;;;;;;;20.42;14.73;;;;;;;-4.00;66.31;146343.59;5106096;28;20393;-67
2023/02/20 10:40:20;;;;;;;20.77;13.90;;;;;;;-3.96;66.29;146351.19;5116821;28;20034;-68
2023/02/20 10:43:11;;;;;;;22.33;14.60;;;;;;;-3.94;66.60;146356.28;5096625;28;20032;-69
2023/02/20 10:45:41;;;;;;;21.13;13.88;;;;;;;-3.94;67.66;146357.53;5090554;28;20106;-68
2023/02/20 10:48:09;;;;;;;21.63;14.40;;;;;;;-3.71;67.33;146414.53;5102530;28;20044;-68
2023/02/20 10:50:56;;;;;;;20.63;14.57;;;;;;;-3.79;68.35;146393.00;5101914;28;20032;-67
2023/02/20 10:53:54;;;;;;;21.98;14.82;;;;;;;-4.10;67.69;146317.03;5100767;28;20020;-67
2023/02/20 10:56:30;;;;;;;20.30;13.68;;;;;;;-4.21;68.40;146290.41;5100599;28;20515;-68
2023/02/20 10:59:40;;;;;;;22.95;15.10;;;;;;;-3.99;68.33;146346.16;5091030;28;20031;-67
2023/02/20 11:02:15;;;;;;;21.88;14.93;;;;;;;-4.04;69.19;146332.22;5027527;28;20102;-67
2023/02/20 11:04:46;;;;;;;23.48;14.32;;;;;;;-3.88;69.03;146371.47;5004431;28;20347;-66
2023/02/20 11:07:17;;;;;;;23.10;15.10;;;;;;;-3.84;68.11;146382.88;5015887;28;20050;-68
2023/02/20 11:09:44;;;;;;;25.77;14.93;;;;;;;-3.88;67.90;146372.72;5019815;28;20036;-68
2023/02/20 11:12:51;;;;;;;19.92;13.95;;;;;;;-3.91;67.64;146365.13;5016147;28;20048;-68
2023/02/20 11:15:23;;;;;;;24.58;15.02;;;;;;;-3.99;65.43;146346.16;4979062;28;20054;-66
2023/02/20 11:17:51;;;;;;;23.75;15.68;;;;;;;-3.87;64.90;146374.03;5012061;28;20099;-65
2023/02/20 11:20:41;;;;;;;19.70;14.45;;;;;;;-4.00;66.49;146342.34;5025850;28;20029;-66
2023/02/20 11:23:07;;;;;;;24.08;16.50;;;;;;;-4.06;64.95;146328.41;5002047;28;20034;-66
2023/02/20 11:25:34;;;;;;;24.50;15.70;;;;;;;-4.11;65.82;146315.72;5038035;28;20107;-66
2023/02/20 11:28:06;;;;;;;26.35;17.13;;;;;;;-4.00;64.82;146343.59;5039726;28;20053;-67
2023/02/20 11:30:34;;;;;;;24.17;16.00;;;;;;;-4.00;67.81;146343.59;5034688;28;20037;-66
2023/02/20 11:33:23;;;;;;;25.02;16.05;;;;;;;-3.73;67.22;146409.50;5065537;28;20032;-67
2023/02/20 11:35:52;;;;;;;23.17;14.88;;;;;;;-4.02;65.97;146338.56;5099627;28;20027;-66
2023/02/20 11:38:27;;;;;;;23.40;14.88;;;;;;;-4.07;66.12;146324.63;5111021;28;20050;-67